Terminal Aerodrome Forecast
Issued by NWS Louisville, KY

Home | Current Version | Previous Version | Text Only | Print | Product List | Glossary On
Versions: 1 2 3 4 5 6 7 8 9 10 11 12 13 14 15 16 17 18 19 20 21 22 23 24 25 26 27
000
FTUS43 KLMK 022000 AAA
TAFSDF
TAF AMD
KSDF 022038Z 0221/0324 21005KT P6SM VCSH BKN023 BKN250
     FM030000 18005KT P6SM VCSH BKN015
     FM030300 VRB05KT 5SM BR VCSH SCT010 BKN100
     FM030800 VRB03KT 5SM BR BKN012=

USA.gov is the U.S. government's official web portal to all federal, state and local government web resources and services.